Terminal Aerodrome Forecast
Issued by NWS

Home | Current Version | Previous Version | Text Only | Print | Product List | Glossary On
Versions: 1 2 3 4 5 6 7 8 9 10 11 12 13 14 15 16 17 18 19 20 21 22 23 24 25 26 27 28 29
000
FTAK31 PANC 230540
TAFACD
TAF
PACD 230540Z 2306/2406 18018G25KT P6SM SCT025 OVC035
     FM230700 18020G30KT P6SM -RA BKN025 OVC035
     FM231200 18020G30KT 5SM -RA BR BKN015 OVC025
     FM231800 18028G38KT 4SM -RA SCT008 OVC015=

USA.gov is the U.S. government's official web portal to all federal, state and local government web resources and services.